createdAt,value
2023-03-23T16:00:44.503Z,3.78
2023-03-23T16:05:47.934Z,3.95
2023-03-23T16:10:51.701Z,4.85
2023-03-23T16:15:56.297Z,7.90
2023-03-23T16:20:59.702Z,2.00
2023-03-23T16:26:03.771Z,5.30
2023-03-23T16:31:08.768Z,2.47
2023-03-23T16:36:13.398Z,4.22
2023-03-23T16:41:17.375Z,4.85
2023-03-23T16:46:22.291Z,4.85
2023-03-23T16:51:25.808Z,4.18
2023-03-23T16:56:29.586Z,5.97
2023-03-23T17:01:34.754Z,5.95
2023-03-23T17:06:38.109Z,4.15
2023-03-23T17:11:42.337Z,4.57
2023-03-23T17:16:46.981Z,3.13
2023-03-23T17:21:51.489Z,4.15
2023-03-23T17:26:55.589Z,5.00
2023-03-23T17:32:00.346Z,3.58
2023-03-23T17:37:03.990Z,7.72
2023-03-23T17:42:07.235Z,5.32
2023-03-23T17:47:12.570Z,2.75
2023-03-23T17:52:16.112Z,5.95
2023-03-23T17:57:20.130Z,3.78
2023-03-23T18:02:25.561Z,4.28
2023-03-23T18:07:28.847Z,3.97
2023-03-23T18:12:32.135Z,4.75
2023-03-23T18:17:37.265Z,3.20
2023-03-23T18:22:40.704Z,5.28
2023-03-23T18:27:44.335Z,4.88
2023-03-23T18:32:49.011Z,2.72
2023-03-23T18:37:52.316Z,4.18
2023-03-23T18:42:56.068Z,7.47
2023-03-23T18:48:00.932Z,5.03
2023-03-23T18:53:04.240Z,4.38
2023-03-23T18:58:07.822Z,5.38
2023-03-23T19:03:13.835Z,5.35
2023-03-23T19:08:18.277Z,6.47
2023-03-23T19:13:21.496Z,8.87
2023-03-23T19:18:26.406Z,6.05
2023-03-23T19:23:30.063Z,5.70
2023-03-23T19:29:18.776Z,4.22
2023-03-23T19:33:58.568Z,6.00
2023-03-23T19:39:04.813Z,12.23
2023-03-23T19:44:08.573Z,7.70
2023-03-23T19:49:14.661Z,5.20
2023-03-23T19:54:18.249Z,6.22
2023-03-23T19:59:21.551Z,5.28
2023-03-23T20:04:27.216Z,5.28
2023-03-23T20:09:31.123Z,9.07
2023-03-23T20:14:35.154Z,8.18
2023-03-23T20:19:40.373Z,6.25
2023-03-23T20:24:47.461Z,4.97
2023-03-23T20:29:52.420Z,7.88
2023-03-23T20:40:01.909Z,7.68
2023-03-23T20:45:06.575Z,4.43
2023-03-23T20:50:12.479Z,7.50
2023-03-23T20:55:15.795Z,6.75
2023-03-23T21:00:19.209Z,5.00
2023-03-23T21:05:24.769Z,4.10
2023-03-23T21:10:28.566Z,7.20
2023-03-23T21:15:33.622Z,7.15
2023-03-23T21:20:38.905Z,7.35
2023-03-23T21:25:44.646Z,8.27
2023-03-23T21:30:48.862Z,10.43
2023-03-23T21:35:53.604Z,7.00
2023-03-23T21:40:58.747Z,6.07
2023-03-23T21:46:05.537Z,6.45
2023-03-23T21:51:14.259Z,5.97
2023-03-23T21:56:18.866Z,7.40
2023-03-23T22:01:22.722Z,10.20
2023-03-23T22:06:28.275Z,12.95
2023-03-23T22:11:32.659Z,12.27
2023-03-23T22:16:36.348Z,10.87
2023-03-23T22:21:41.025Z,8.00
2023-03-23T22:26:44.320Z,6.95
2023-03-23T22:31:47.831Z,8.32
2023-03-23T22:36:52.558Z,10.07
2023-03-23T22:41:56.572Z,9.35
2023-03-23T22:46:59.928Z,7.47
2023-03-23T22:52:04.834Z,9.93
2023-03-23T22:57:08.231Z,11.48
2023-03-23T23:02:12.161Z,9.52
2023-03-23T23:07:17.355Z,10.52
2023-03-23T23:12:21.684Z,6.80
2023-03-23T23:17:26.591Z,8.00
2023-03-23T23:22:31.389Z,11.23
2023-03-23T23:27:34.076Z,8.98
2023-03-23T23:32:37.916Z,15.57
2023-03-23T23:37:43.095Z,10.68
2023-03-23T23:42:48.644Z,12.23
2023-03-23T23:47:51.990Z,8.90
2023-03-23T23:52:58.629Z,9.70
2023-03-23T23:58:01.871Z,15.23
